Time;durP1;ratioP1;P1;durP2;ratioP2;P2;SDS_P1;SDS_P2;PMS_P1;PMS_P2;Temp;Humidity;BMP_temperature;BMP_pressure;BME280_temperature;BME280_humidity;BME280_pressure;Samples;Min_cycle;Max_cycle;Signal;HPM_P1;HPM_P2
2022/02/22 00:01:50;;;;;;;0.28;0.25;;;;;;;7.97;100.00;100116.16;5071485;28;20048;-81
2022/02/22 00:04:53;;;;;;;0.65;0.45;;;;;;;8.00;100.00;100125.59;5070566;28;20055;-81
2022/02/22 00:07:56;;;;;;;2.55;0.57;;;;;;;7.97;100.00;100104.31;5071294;28;20600;-81
2022/02/22 00:11:00;;;;;;;0.52;0.52;;;;;;;8.04;100.00;100099.28;5070704;28;20063;-81
2022/02/22 00:14:05;;;;;;;0.73;0.70;;;;;;;8.12;100.00;100105.34;5071588;28;20056;-82
2022/02/22 00:17:08;;;;;;;0.52;0.47;;;;;;;8.23;100.00;100112.03;5070416;28;20055;-81
2022/02/22 00:20:12;;;;;;;0.20;0.20;;;;;;;8.24;100.00;100113.59;5070875;28;20052;-81
2022/02/22 00:23:15;;;;;;;1.10;0.65;;;;;;;8.31;100.00;100104.25;5070350;28;20051;-81
2022/02/22 00:26:19;;;;;;;6.38;0.45;;;;;;;8.39;100.00;100097.19;5070329;28;20178;-82
2022/02/22 00:29:22;;;;;;;7.53;2.00;;;;;;;8.43;100.00;100086.72;5070187;28;20230;-82
2022/02/22 00:32:26;;;;;;;0.95;0.77;;;;;;;8.47;100.00;100086.63;5072609;28;20048;-85
2022/02/22 00:35:30;;;;;;;7.55;2.35;;;;;;;8.58;100.00;100075.84;5072542;28;20052;-83
2022/02/22 00:38:33;;;;;;;17.63;0.50;;;;;;;8.62;100.00;100076.50;5071636;28;20401;-83
2022/02/22 00:41:37;;;;;;;0.50;0.32;;;;;;;8.71;100.00;100082.84;5071293;28;20422;-83
2022/02/22 00:44:41;;;;;;;1.00;0.90;;;;;;;8.76;100.00;100073.94;5072180;28;20051;-84
2022/02/22 00:47:45;;;;;;;8.25;1.00;;;;;;;8.77;100.00;100075.47;5070885;28;20055;-83
2022/02/22 00:50:48;;;;;;;1.08;0.77;;;;;;;8.82;100.00;100062.97;5072339;28;20067;-84
2022/02/22 00:53:51;;;;;;;1.90;0.68;;;;;;;8.90;100.00;100064.25;5070944;28;20406;-82
2022/02/22 00:56:55;;;;;;;5.72;1.70;;;;;;;8.89;100.00;100052.38;5070712;28;20402;-82
2022/02/22 00:59:59;;;;;;;5.47;0.85;;;;;;;8.94;100.00;100046.19;5071620;28;20071;-82
2022/02/22 01:03:03;;;;;;;1.05;0.63;;;;;;;8.99;100.00;100034.47;5070520;28;20449;-83
2022/02/22 01:06:06;;;;;;;13.73;1.75;;;;;;;9.02;100.00;100028.00;5071373;28;20071;-83
2022/02/22 01:09:09;;;;;;;2.85;0.57;;;;;;;9.11;100.00;100027.25;5071315;28;20063;-83
2022/02/22 01:12:15;;;;;;;9.85;1.67;;;;;;;9.15;100.00;100020.31;5070126;28;20601;-82
2022/02/22 01:15:18;;;;;;;0.63;0.13;;;;;;;9.13;100.00;100008.13;5082095;28;20055;-82
2022/02/22 01:18:22;;;;;;;10.63;0.90;;;;;;;9.18;100.00;100005.47;5071308;28;20048;-81
2022/02/22 01:21:26;;;;;;;9.07;1.45;;;;;;;9.22;100.00;100013.69;5071216;28;20071;-83
2022/02/22 01:24:30;;;;;;;0.55;0.55;;;;;;;9.22;100.00;100010.13;5069707;28;20047;-81
2022/02/22 01:27:34;;;;;;;0.50;0.50;;;;;;;9.12;100.00;99999.00;5071489;28;20055;-83
2022/02/22 01:30:37;;;;;;;0.38;0.35;;;;;;;9.10;100.00;99995.13;5071751;28;20056;-83
2022/02/22 01:33:41;;;;;;;3.70;0.20;;;;;;;9.04;100.00;99997.78;5071954;28;20059;-83
2022/02/22 01:36:45;;;;;;;0.52;0.52;;;;;;;9.00;100.00;99997.16;5072078;28;20600;-83
2022/02/22 01:39:49;;;;;;;0.45;0.20;;;;;;;8.97;100.00;99969.50;5071717;28;20047;-85
2022/02/22 01:42:53;;;;;;;1.20;1.10;;;;;;;9.00;100.00;99963.03;5052096;28;20489;-83
2022/02/22 01:45:56;;;;;;;8.20;0.47;;;;;;;9.05;100.00;99960.41;5051360;28;20067;-85
2022/02/22 01:49:00;;;;;;;3.72;0.77;;;;;;;9.06;100.00;99961.97;5051858;28;20060;-84
2022/02/22 01:52:04;;;;;;;6.07;0.60;;;;;;;9.03;100.00;99949.00;5051648;28;20052;-84
2022/02/22 01:55:08;;;;;;;2.55;0.98;;;;;;;9.04;100.00;99931.09;5050726;28;20056;-84
2022/02/22 01:58:12;;;;;;;0.60;0.60;;;;;;;9.07;100.00;99930.16;5077508;28;20055;-83
2022/02/22 02:01:15;;;;;;;4.05;0.70;;;;;;;9.09;100.00;99919.38;5070998;28;20066;-83
2022/02/22 02:04:20;;;;;;;7.43;1.38;;;;;;;9.14;100.00;99913.19;5082393;28;20501;-83
2022/02/22 02:07:23;;;;;;;4.45;1.15;;;;;;;9.14;100.00;99913.19;5071427;28;20509;-83
2022/02/22 02:10:27;;;;;;;1.95;1.20;;;;;;;9.15;100.00;99903.63;5070391;28;20502;-83
2022/02/22 02:13:30;;;;;;;6.82;0.90;;;;;;;9.11;100.00;99902.25;5070979;28;20056;-82
2022/02/22 02:16:34;;;;;;;2.00;0.68;;;;;;;9.06;100.00;99898.06;5070954;28;20055;-83
2022/02/22 02:19:40;;;;;;;5.88;0.77;;;;;;;9.07;100.00;99898.84;5071292;28;20119;-83
2022/02/22 02:22:44;;;;;;;0.10;0.10;;;;;;;9.08;100.00;99900.38;5071219;28;20056;-85
2022/02/22 02:25:47;;;;;;;4.78;0.82;;;;;;;9.08;100.00;99890.03;5071378;28;20059;-83
2022/02/22 02:28:51;;;;;;;1.23;1.13;;;;;;;9.12;100.00;99879.53;5070876;28;20072;-83
2022/02/22 02:31:57;;;;;;;0.88;0.35;;;;;;;9.08;100.00;99881.72;5071130;28;20080;-83
2022/02/22 02:35:01;;;;;;;8.55;1.27;;;;;;;8.94;100.00;99882.31;5070808;28;20542;-82
2022/02/22 02:38:04;;;;;;;4.85;0.85;;;;;;;8.99;100.00;99867.81;5070199;28;20130;-84
2022/02/22 02:41:07;;;;;;;7.65;1.48;;;;;;;9.03;100.00;99865.66;5077407;28;20055;-83
2022/02/22 02:44:22;;;;;;;10.98;0.65;;;;;;;9.09;100.00;99872.16;5090799;28;20055;-84
2022/02/22 02:47:25;;;;;;;0.25;0.20;;;;;;;9.08;100.00;99858.72;5081676;28;20056;-82
2022/02/22 02:50:29;;;;;;;2.83;1.23;;;;;;;9.09;100.00;99844.38;5069818;28;20048;-83
2022/02/22 02:53:32;;;;;;;0.25;0.25;;;;;;;9.08;100.00;99837.25;5082184;28;20051;-84
2022/02/22 02:56:36;;;;;;;0.73;0.65;;;;;;;9.05;100.00;99832.63;5072165;28;20493;-84
2022/02/22 02:59:39;;;;;;;5.53;0.65;;;;;;;9.10;100.00;99834.78;5074337;28;20085;-83
2022/02/22 03:02:42;;;;;;;2.10;0.52;;;;;;;9.07;100.00;99819.03;5074321;28;20059;-83
2022/02/22 03:05:46;;;;;;;3.63;0.63;;;;;;;9.01;100.00;99834.78;5075736;28;20051;-85
2022/02/22 03:08:49;;;;;;;1.05;0.93;;;;;;;9.03;100.00;99824.00;5075549;28;20059;-86
2022/02/22 03:11:53;;;;;;;7.05;0.60;;;;;;;9.02;100.00;99822.47;5074985;28;20063;-85
2022/02/22 03:14:56;;;;;;;6.13;0.98;;;;;;;9.08;100.00;99811.47;5074967;28;20406;-85
2022/02/22 03:17:59;;;;;;;0.50;0.50;;;;;;;9.06;100.00;99800.84;5075866;28;20052;-86
2022/02/22 03:21:04;;;;;;;7.97;1.05;;;;;;;9.07;100.00;99794.03;5087467;28;20055;-85
2022/02/22 03:24:08;;;;;;;0.65;0.60;;;;;;;9.01;100.00;99793.13;5095159;28;20071;-85
2022/02/22 03:27:11;;;;;;;6.10;0.98;;;;;;;8.99;100.00;99781.72;5087857;28;20055;-86
2022/02/22 03:30:15;;;;;;;0.85;0.85;;;;;;;9.00;100.00;99771.38;5074853;28;20060;-86
2022/02/22 03:33:20;;;;;;;7.88;0.65;;;;;;;9.08;100.00;99770.59;5075916;28;20063;-85
2022/02/22 03:36:25;;;;;;;4.05;0.95;;;;;;;9.09;100.00;99763.81;5073804;28;20048;-86
2022/02/22 03:39:28;;;;;;;0.20;0.20;;;;;;;9.15;100.00;99744.50;5075751;28;20057;-86
2022/02/22 03:42:32;;;;;;;4.47;0.52;;;;;;;9.16;100.00;99741.22;5074987;28;20048;-86
2022/02/22 03:45:35;;;;;;;0.52;0.52;;;;;;;9.18;100.00;99726.13;5074580;28;20048;-86
2022/02/22 03:48:39;;;;;;;3.17;0.85;;;;;;;9.22;100.00;99727.50;5074575;28;20052;-85
2022/02/22 03:51:43;;;;;;;6.22;1.60;;;;;;;9.27;100.00;99710.16;5075294;28;20512;-87
2022/02/22 03:54:46;;;;;;;1.75;0.68;;;;;;;9.29;100.00;99716.00;5075629;28;20297;-86
2022/02/22 03:57:50;;;;;;;0.98;0.55;;;;;;;9.30;100.00;99708.47;5074494;28;20055;-86
2022/02/22 04:00:53;;;;;;;0.10;0.10;;;;;;;9.36;100.00;99717.69;5074775;28;20063;-86
2022/02/22 04:03:56;;;;;;;0.88;0.52;;;;;;;9.34;100.00;99709.06;5074344;28;20402;-86
2022/02/22 04:07:00;;;;;;;0.85;0.30;;;;;;;9.37;100.00;99697.00;5074831;28;20056;-86
2022/02/22 04:10:05;;;;;;;0.68;0.38;;;;;;;9.39;100.00;99683.41;5074293;28;20047;-86
2022/02/22 04:13:09;;;;;;;1.17;0.50;;;;;;;9.41;100.00;99680.91;5074146;28;20064;-85
2022/02/22 04:16:12;;;;;;;7.45;1.45;;;;;;;9.42;100.00;99671.34;5074432;28;20047;-86
2022/02/22 04:19:16;;;;;;;4.55;1.30;;;;;;;9.43;100.00;99672.88;5075096;28;20118;-86
2022/02/22 04:22:20;;;;;;;10.57;1.95;;;;;;;9.45;100.00;99662.06;5074122;28;20052;-87
2022/02/22 04:25:23;;;;;;;4.65;1.05;;;;;;;9.49;100.00;99646.75;5074815;28;20585;-86
2022/02/22 04:28:27;;;;;;;4.47;1.92;;;;;;;9.49;100.00;99637.63;5073988;28;20060;-87
2022/02/22 04:31:38;;;;;;;0.88;0.88;;;;;;;9.51;100.00;99647.03;5073879;28;20051;-86
2022/02/22 04:34:41;;;;;;;0.10;0.10;;;;;;;9.60;100.00;99637.88;5073940;28;20047;-87
2022/02/22 04:37:44;;;;;;;1.15;0.60;;;;;;;9.61;100.00;99628.28;5073769;28;20059;-87
2022/02/22 04:40:48;;;;;;;6.45;0.57;;;;;;;9.64;100.00;99619.00;5074371;28;20051;-87
2022/02/22 04:43:51;;;;;;;0.70;0.70;;;;;;;9.67;100.00;99604.91;5073978;28;20048;-87
2022/02/22 04:46:55;;;;;;;5.00;1.00;;;;;;;9.67;100.00;99604.91;5073853;28;20581;-87
2022/02/22 04:49:58;;;;;;;2.28;1.05;;;;;;;9.69;100.00;99582.19;5073938;28;20056;-87
2022/02/22 04:53:03;;;;;;;16.65;0.73;;;;;;;9.61;100.00;99583.81;5073510;28;20051;-87
2022/02/22 04:56:07;;;;;;;11.50;0.40;;;;;;;9.63;100.00;99586.88;5073185;28;20044;-87
2022/02/22 04:59:11;;;;;;;0.30;0.30;;;;;;;9.61;100.00;99579.03;5073470;28;20056;-87
2022/02/22 05:02:14;;;;;;;5.88;0.40;;;;;;;9.63;100.00;99581.31;5073931;28;20119;-87
2022/02/22 05:05:17;;;;;;;1.67;0.55;;;;;;;9.61;100.00;99579.03;5073792;28;20067;-87
2022/02/22 05:08:21;;;;;;;0.93;0.93;;;;;;;9.64;100.00;99566.16;5074002;28;20051;-87
2022/02/22 05:11:25;;;;;;;0.75;0.60;;;;;;;9.67;100.00;99565.22;5072963;28;20055;-86
2022/02/22 05:14:29;;;;;;;0.93;0.75;;;;;;;9.67;100.00;99559.66;5073137;28;20055;-86
2022/02/22 05:17:33;;;;;;;2.65;1.23;;;;;;;9.70;100.00;99558.72;5073128;28;20052;-86
2022/02/22 05:20:36;;;;;;;0.10;0.10;;;;;;;9.68;100.00;99555.66;5072048;28;20047;-86
2022/02/22 05:23:40;;;;;;;0.93;0.43;;;;;;;9.66;100.00;99544.22;5072641;28;20055;-86
2022/02/22 05:26:43;;;;;;;2.30;0.60;;;;;;;9.66;100.00;99525.53;5072949;28;20047;-86
2022/02/22 05:29:46;;;;;;;0.43;0.40;;;;;;;9.72;100.00;99517.31;5069948;28;20055;-86
2022/02/22 05:32:49;;;;;;;3.83;0.98;;;;;;;9.75;100.00;99511.53;5071539;28;20052;-86
2022/02/22 05:35:54;;;;;;;0.35;0.35;;;;;;;9.88;100.00;99494.56;5072403;28;20056;-87
2022/02/22 05:38:57;;;;;;;3.78;1.42;;;;;;;9.91;100.00;99485.28;5072391;28;20059;-86
2022/02/22 05:42:01;;;;;;;0.28;0.20;;;;;;;9.90;100.00;99476.16;5052592;28;20052;-86
2022/02/22 05:45:05;;;;;;;2.95;0.45;;;;;;;9.98;100.00;99478.56;5052260;28;20052;-86
2022/02/22 05:48:08;;;;;;;0.43;0.43;;;;;;;10.01;100.00;99475.56;5067505;28;20056;-86
2022/02/22 05:51:12;;;;;;;1.60;0.17;;;;;;;10.02;100.00;99466.00;5072368;28;20402;-86
2022/02/22 05:54:15;;;;;;;1.95;0.38;;;;;;;10.05;100.00;99467.78;5071873;28;20060;-86
2022/02/22 05:57:19;;;;;;;3.22;0.60;;;;;;;10.16;100.00;99447.75;5071827;28;20075;-86
2022/02/22 06:00:22;;;;;;;10.35;1.17;;;;;;;10.17;100.00;99429.81;5072278;28;20059;-86
2022/02/22 06:03:26;;;;;;;0.50;0.35;;;;;;;10.20;100.00;99414.97;5071583;28;20055;-87
2022/02/22 06:06:30;;;;;;;13.20;0.68;;;;;;;10.25;100.00;99409.47;5072184;28;20398;-86
2022/02/22 06:09:33;;;;;;;2.60;1.83;;;;;;;10.27;100.00;99383.91;5072021;28;20066;-86
2022/02/22 06:12:37;;;;;;;0.30;0.30;;;;;;;10.25;100.00;99364.94;5071485;28;20064;-91
2022/02/22 06:15:40;;;;;;;1.35;0.35;;;;;;;10.22;100.00;99354.75;5071297;28;20051;-88
2022/02/22 06:18:44;;;;;;;0.38;0.38;;;;;;;10.19;100.00;99355.75;5072212;28;20055;-88
2022/02/22 06:21:47;;;;;;;1.65;1.10;;;;;;;10.15;100.00;99338.50;5072526;28;20127;-88
2022/02/22 06:24:50;;;;;;;0.95;0.50;;;;;;;10.10;100.00;99344.72;5071398;28;20047;-87
2022/02/22 06:27:54;;;;;;;1.85;0.47;;;;;;;10.08;100.00;99347.22;5072980;28;20055;-88
2022/02/22 06:30:59;;;;;;;20.33;1.40;;;;;;;10.09;100.00;99345.19;5073847;28;20521;-88
2022/02/22 06:34:04;;;;;;;4.95;1.67;;;;;;;10.14;100.00;99341.75;5075821;28;20054;-87
2022/02/22 06:37:08;;;;;;;2.38;0.75;;;;;;;10.09;100.00;99356.34;5076407;28;20048;-87
2022/02/22 06:40:11;;;;;;;11.02;0.82;;;;;;;10.07;100.00;99367.91;5076392;28;20051;-89
2022/02/22 06:43:14;;;;;;;3.17;1.15;;;;;;;10.07;100.00;99359.56;5076067;28;20055;-88
2022/02/22 06:46:18;;;;;;;5.60;1.90;;;;;;;10.10;100.00;99364.19;5075675;28;20051;-88
2022/02/22 06:49:21;;;;;;;6.22;0.88;;;;;;;10.17;100.00;99363.81;5056720;28;20052;-88
2022/02/22 06:52:25;;;;;;;0.40;0.40;;;;;;;10.29;100.00;99368.28;5074010;28;20652;-88
2022/02/22 06:55:28;;;;;;;4.88;1.50;;;;;;;10.33;100.00;99354.91;5075112;28;20047;-88
2022/02/22 06:58:32;;;;;;;5.05;1.65;;;;;;;10.33;100.00;99348.59;5074245;28;20059;-88
2022/02/22 07:01:35;;;;;;;4.57;1.40;;;;;;;10.31;100.00;99335.16;5074551;28;20052;-88
2022/02/22 07:04:38;;;;;;;8.07;1.17;;;;;;;10.37;100.00;99304.63;5074399;28;20398;-86
2022/02/22 07:07:42;;;;;;;1.08;0.57;;;;;;;10.33;100.00;99299.25;5075348;28;20052;-88
2022/02/22 07:10:46;;;;;;;3.45;0.88;;;;;;;10.28;100.00;99280.47;5075597;28;20053;-88
2022/02/22 07:13:49;;;;;;;2.50;0.50;;;;;;;10.28;100.00;99283.28;5075138;28;20055;-88
2022/02/22 07:16:55;;;;;;;0.20;0.20;;;;;;;10.25;100.00;99289.81;5073718;28;20047;-88
2022/02/22 07:19:58;;;;;;;5.38;0.50;;;;;;;10.24;100.00;99309.78;5074404;28;20055;-89
2022/02/22 07:23:02;;;;;;;1.00;0.80;;;;;;;10.24;100.00;99312.56;5075836;28;20048;-88
2022/02/22 07:26:06;;;;;;;1.90;0.50;;;;;;;10.34;100.00;99311.16;5075296;28;20059;-91
2022/02/22 07:29:09;;;;;;;0.50;0.50;;;;;;;10.35;100.00;99329.41;5075314;28;20055;-89
2022/02/22 07:32:12;;;;;;;0.35;0.35;;;;;;;10.41;100.00;99328.22;5076092;28;20051;-90
2022/02/22 07:35:16;;;;;;;6.50;1.10;;;;;;;10.58;100.00;99326.41;5075202;28;20055;-90
2022/02/22 07:38:20;;;;;;;0.75;0.68;;;;;;;10.76;100.00;99316.22;5075107;28;20056;-81
2022/02/22 07:41:23;;;;;;;7.85;0.45;;;;;;;10.93;100.00;99322.72;5072442;28;20047;-82
2022/02/22 07:44:26;;;;;;;3.05;0.60;;;;;;;11.03;100.00;99313.72;5073231;28;20556;-82
2022/02/22 07:47:30;;;;;;;3.83;1.15;;;;;;;11.14;100.00;99297.09;5074094;28;20100;-87
2022/02/22 07:50:35;;;;;;;9.63;0.68;;;;;;;11.22;100.00;99286.25;5075504;28;20051;-87
2022/02/22 07:53:39;;;;;;;0.25;0.10;;;;;;;11.26;100.00;99276.41;5075135;28;20056;-89
2022/02/22 07:56:43;;;;;;;7.82;0.88;;;;;;;11.32;100.00;99254.94;5075184;28;20052;-88
2022/02/22 07:59:46;;;;;;;0.43;0.32;;;;;;;11.45;100.00;99251.75;5075543;28;20170;-90
2022/02/22 08:02:54;;;;;;;0.30;0.30;;;;;;;11.53;100.00;99265.97;5076140;28;20646;-89
2022/02/22 08:05:57;;;;;;;6.22;0.50;;;;;;;11.63;100.00;99272.91;5074801;28;20047;-86
2022/02/22 08:09:00;;;;;;;13.57;1.95;;;;;;;11.72;100.00;99265.13;5054036;28;20056;-86
2022/02/22 08:12:05;;;;;;;5.50;0.82;;;;;;;11.91;100.00;99260.69;5055113;28;20067;-84
2022/02/22 08:15:08;;;;;;;0.38;0.30;;;;;;;12.02;100.00;99263.53;5053003;28;20052;-87
2022/02/22 08:18:12;;;;;;;3.42;0.57;;;;;;;12.11;100.00;99263.31;5066919;28;20056;-88
2022/02/22 08:21:16;;;;;;;3.42;1.00;;;;;;;12.26;100.00;99260.34;5074823;28;20521;-84
2022/02/22 08:24:22;;;;;;;5.63;0.63;;;;;;;12.43;100.00;99254.84;5073933;28;20414;-88
2022/02/22 08:27:25;;;;;;;4.38;0.65;;;;;;;12.65;100.00;99263.25;5075641;28;20055;-88
2022/02/22 08:30:29;;;;;;;2.33;1.38;;;;;;;12.68;100.00;99276.22;5074964;28;20076;-86
2022/02/22 08:33:32;;;;;;;3.90;0.28;;;;;;;12.77;100.00;99268.38;5073985;28;20059;-87
2022/02/22 08:36:36;;;;;;;0.10;0.10;;;;;;;12.84;100.00;99267.13;5073861;28;20067;-87
2022/02/22 08:39:39;;;;;;;5.45;1.00;;;;;;;12.94;100.00;99262.81;5074112;28;20044;-87
2022/02/22 08:42:42;;;;;;;0.68;0.65;;;;;;;12.92;100.00;99256.97;5073932;28;20059;-87
2022/02/22 08:45:46;;;;;;;0.65;0.57;;;;;;;12.95;100.00;99251.13;5065784;28;20052;-87
2022/02/22 08:48:50;;;;;;;3.55;1.05;;;;;;;13.00;100.00;99252.41;5061926;28;20052;-86
2022/02/22 08:51:53;;;;;;;3.10;0.88;;;;;;;13.14;100.00;99245.84;5063024;28;20055;-87
2022/02/22 08:54:57;;;;;;;4.72;0.43;;;;;;;13.23;100.00;99230.84;5062565;28;20055;-87
2022/02/22 08:58:01;;;;;;;0.47;0.28;;;;;;;13.35;100.00;99233.13;5065916;28;20048;-87
2022/02/22 09:01:05;;;;;;;0.63;0.25;;;;;;;13.66;100.00;99218.84;5061291;28;20060;-87
2022/02/22 09:04:08;;;;;;;12.77;1.25;;;;;;;13.72;100.00;99232.81;5062311;28;20044;-85
2022/02/22 09:07:12;;;;;;;5.78;1.17;;;;;;;13.74;100.00;99223.91;5067124;28;20497;-86
2022/02/22 09:10:16;;;;;;;5.93;0.85;;;;;;;13.62;100.00;99229.53;5073969;28;20056;-87
2022/02/22 09:13:20;;;;;;;0.75;0.50;;;;;;;13.51;100.00;99218.34;5073590;28;20413;-86
2022/02/22 09:16:23;;;;;;;13.30;1.85;;;;;;;13.40;100.00;99234.41;5073910;28;20051;-89
2022/02/22 09:19:27;;;;;;;4.25;1.02;;;;;;;13.25;100.00;99228.31;5075641;28;20055;-89
2022/02/22 09:22:30;;;;;;;8.20;1.40;;;;;;;13.05;100.00;99222.97;5073554;28;20052;-91
2022/02/22 09:25:35;;;;;;;0.52;0.43;;;;;;;12.93;100.00;99208.19;5073996;28;20044;-90
2022/02/22 09:28:38;;;;;;;1.83;0.40;;;;;;;12.88;100.00;99217.34;5074664;28;20052;-93
2022/02/22 09:31:42;;;;;;;4.78;1.33;;;;;;;12.83;100.00;99209.72;5073110;28;20051;-93
2022/02/22 09:34:45;;;;;;;3.10;1.20;;;;;;;12.74;100.00;99204.34;5062561;28;20055;-92
2022/02/22 09:37:48;;;;;;;7.25;0.95;;;;;;;12.76;100.00;99218.59;5073803;28;20059;-94
2022/02/22 09:40:52;;;;;;;2.88;0.57;;;;;;;12.73;100.00;99217.56;5072964;28;20056;-92
2022/02/22 09:43:55;;;;;;;3.55;0.65;;;;;;;12.75;100.00;99214.28;5069754;28;20064;-93
2022/02/22 09:47:00;;;;;;;3.90;0.75;;;;;;;12.80;100.00;99214.28;5065082;28;20398;-93
2022/02/22 09:50:05;;;;;;;0.38;0.38;;;;;;;12.88;100.00;99211.75;5073007;28;20059;-93
2022/02/22 09:53:09;;;;;;;0.93;0.35;;;;;;;13.01;100.00;99220.41;5074045;28;20056;-93
2022/02/22 09:56:12;;;;;;;8.10;0.75;;;;;;;13.05;100.00;99209.75;5073702;28;20389;-93
2022/02/22 09:59:16;;;;;;;3.50;1.00;;;;;;;13.20;100.00;99210.25;5053237;28;20055;-93
2022/02/22 10:02:20;;;;;;;1.17;0.65;;;;;;;13.38;100.00;99211.78;5053656;28;20647;-93
2022/02/22 10:05:26;;;;;;;0.20;0.20;;;;;;;13.33;100.00;99218.91;5053535;28;20627;-93
2022/02/22 10:08:32;;;;;;;1.55;0.40;;;;;;;13.25;100.00;99295.41;5071589;28;20496;-90
2022/02/22 10:11:49;;;;;;;0.35;0.32;;;;;;;13.13;100.00;99317.00;5073762;28;20067;-92
2022/02/22 10:14:56;;;;;;;0.38;0.17;;;;;;;12.85;100.00;99327.31;5052817;28;20052;-92
2022/02/22 10:18:02;;;;;;;0.10;0.10;;;;;;;12.59;100.00;99324.72;5066940;28;20048;-93
2022/02/22 10:21:05;;;;;;;0.20;0.20;;;;;;;12.44;100.00;99334.53;5073434;28;20060;-94
2022/02/22 10:24:10;;;;;;;0.47;0.10;;;;;;;12.28;100.00;99354.78;5072026;28;20060;-94
2022/02/22 10:27:13;;;;;;;0.77;0.47;;;;;;;12.14;100.00;99337.69;5073125;28;20102;-93
2022/02/22 10:30:28;;;;;;;0.10;0.10;;;;;;;12.05;100.00;99337.13;5073011;28;20052;-94
2022/02/22 10:33:33;;;;;;;0.10;0.08;;;;;;;12.06;100.00;99350.56;5060740;28;20060;-92
2022/02/22 10:36:39;;;;;;;0.10;0.10;;;;;;;12.01;100.00;99351.31;5055041;28;20095;-93
2022/02/22 10:39:43;;;;;;;4.55;0.40;;;;;;;11.98;100.00;99371.84;5064320;28;20051;-93
2022/02/22 10:42:46;;;;;;;0.70;0.50;;;;;;;11.98;100.00;99383.00;5053499;28;20509;-93
2022/02/22 10:45:52;;;;;;;0.10;0.10;;;;;;;11.98;100.00;99365.47;5061109;28;20403;-95
2022/02/22 10:49:01;;;;;;;1.17;0.20;;;;;;;11.94;100.00;99384.47;5072072;28;20055;-93
2022/02/22 10:52:07;;;;;;;0.10;0.03;;;;;;;11.76;100.00;99405.13;5068626;28;20068;-94
2022/02/22 10:55:10;;;;;;;0.10;0.10;;;;;;;11.67;100.00;99396.97;5074771;28;20059;-95
2022/02/22 10:58:14;;;;;;;1.85;0.20;;;;;;;11.71;100.00;99414.25;5062130;28;20056;-95
2022/02/22 11:01:23;;;;;;;0.10;0.10;;;;;;;11.66;100.00;99400.97;5095732;28;20051;-93
2022/02/22 11:04:27;;;;;;;0.10;0.10;;;;;;;11.58;100.00;99413.84;5096296;28;20051;-94
2022/02/22 11:07:30;;;;;;;3.50;0.73;;;;;;;11.51;100.00;99421.88;5087297;28;20060;-94
2022/02/22 11:10:40;;;;;;;0.82;0.52;;;;;;;11.44;100.00;99414.72;5067418;28;20060;-92
2022/02/22 11:13:59;;;;;;;16.38;0.82;;;;;;;11.33;100.00;99434.88;5080355;28;20056;-95
2022/02/22 11:17:19;;;;;;;0.40;0.20;;;;;;;11.23;100.00;99446.69;5063729;28;20051;-93
2022/02/22 11:20:27;;;;;;;0.57;0.45;;;;;;;11.28;100.00;99449.50;5075510;28;20059;-93
2022/02/22 11:23:31;;;;;;;0.55;0.32;;;;;;;11.40;100.00;99467.13;5075301;28;20055;-93
2022/02/22 11:26:53;;;;;;;0.20;0.20;;;;;;;11.51;100.00;99458.13;5076491;28;20071;-94
2022/02/22 11:29:56;;;;;;;;;;;;;;;11.69;100.00;99464.19;5076255;28;20425;-93
2022/02/22 11:33:11;;;;;;;1.35;1.25;;;;;;;11.67;100.00;99466.69;5076151;28;19916;-92
2022/02/22 11:36:29;;;;;;;1.33;0.65;;;;;;;11.83;100.00;99471.66;5075381;28;20327;-93
2022/02/22 11:39:51;;;;;;;1.55;0.75;;;;;;;11.84;100.00;99469.66;5067047;28;20056;-94
2022/02/22 11:43:14;;;;;;;0.30;0.28;;;;;;;11.78;100.00;99480.72;5058107;28;20052;-93
2022/02/22 11:46:18;;;;;;;0.40;0.40;;;;;;;11.77;100.00;99484.78;5073388;28;20056;-95
2022/02/22 11:49:26;;;;;;;4.20;0.52;;;;;;;11.94;100.00;99474.56;5060806;28;20056;-95
2022/02/22 11:52:37;;;;;;;0.13;0.13;;;;;;;12.19;100.00;99487.69;5067223;28;20051;-94
2022/02/22 11:55:40;;;;;;;0.30;0.30;;;;;;;12.35;100.00;99489.09;5056460;28;20056;-94
2022/02/22 11:58:44;;;;;;;2.55;0.73;;;;;;;12.29;100.00;99495.91;5083442;28;20051;-94
2022/02/22 12:01:50;;;;;;;0.10;0.10;;;;;;;12.14;100.00;99491.22;5098290;28;20130;-95
2022/02/22 12:04:54;;;;;;;0.47;0.47;;;;;;;12.30;100.00;99480.69;5098867;28;20046;-92
2022/02/22 12:08:02;;;;;;;2.80;1.13;;;;;;;12.35;100.00;99477.94;5082724;28;20084;-95
2022/02/22 12:11:14;;;;;;;0.10;0.10;;;;;;;12.32;100.00;99478.16;5075224;28;20052;-96
2022/02/22 12:14:18;;;;;;;2.30;0.30;;;;;;;12.12;100.00;99499.34;5076745;28;20493;-95
2022/02/22 12:17:22;;;;;;;0.30;0.20;;;;;;;12.14;100.00;99499.59;5076036;28;20063;-94
2022/02/22 12:20:26;;;;;;;0.13;0.13;;;;;;;12.23;100.00;99503.47;5075377;28;20047;-95
2022/02/22 12:23:30;;;;;;;0.10;0.10;;;;;;;12.26;100.00;99513.66;5088495;28;20464;-93
2022/02/22 12:26:37;;;;;;;11.75;0.85;;;;;;;12.36;100.00;99523.38;5079226;28;20056;-95
2022/02/22 12:29:41;;;;;;;2.95;0.60;;;;;;;12.46;100.00;99527.50;5081819;28;20064;-94
2022/02/22 12:32:50;;;;;;;0.40;0.10;;;;;;;12.27;100.00;99551.47;5072364;28;20052;-95
2022/02/22 12:35:54;;;;;;;0.40;0.20;;;;;;;12.16;100.00;99538.94;5069080;28;20051;-95
2022/02/22 12:39:10;;;;;;;7.60;1.98;;;;;;;12.22;100.00;99558.53;5058343;28;20056;-96
2022/02/22 12:42:17;;;;;;;6.18;0.93;;;;;;;12.14;100.00;99558.22;5051526;28;20051;-88
2022/02/22 12:45:22;;;;;;;5.45;0.45;;;;;;;12.48;100.00;99564.06;5051004;28;20445;-90
2022/02/22 12:48:26;;;;;;;15.00;3.03;;;;;;;12.72;100.00;99567.31;5067983;28;20047;-87
2022/02/22 12:51:30;;;;;;;6.43;1.08;;;;;;;12.80;100.00;99571.94;5071624;28;20063;-93
2022/02/22 12:54:35;;;;;;;2.72;1.00;;;;;;;12.82;100.00;99582.66;5070726;28;20052;-92
2022/02/22 12:57:39;;;;;;;2.60;0.68;;;;;;;12.76;100.00;99587.41;5078610;28;20280;-91
2022/02/22 13:00:42;;;;;;;5.93;0.88;;;;;;;12.81;100.00;99581.09;5057640;28;20047;-92
2022/02/22 13:03:48;;;;;;;0.63;0.43;;;;;;;12.81;100.00;99578.31;5055274;28;20056;-90
2022/02/22 13:06:57;;;;;;;0.10;0.10;;;;;;;13.02;100.00;99579.72;5061171;28;20074;-91
2022/02/22 13:10:08;;;;;;;2.55;1.10;;;;;;;13.43;100.00;99564.19;5075718;28;20051;-91
2022/02/22 13:13:12;;;;;;;0.97;0.97;;;;;;;13.61;100.00;99580.56;5074944;28;20047;-90
2022/02/22 13:16:16;;;;;;;1.45;0.55;;;;;;;13.50;100.00;99574.94;5074830;28;20284;-90
2022/02/22 13:19:40;;;;;;;1.55;0.30;;;;;;;13.19;100.00;99577.81;5055572;28;20395;-91
2022/02/22 13:22:44;;;;;;;1.50;0.30;;;;;;;13.26;100.00;99588.53;5052035;28;20072;-90
2022/02/22 13:25:58;;;;;;;5.15;0.47;;;;;;;13.39;100.00;99602.84;5053301;28;20052;-89
2022/02/22 13:29:07;;;;;;;2.40;1.48;;;;;;;13.59;100.00;99604.72;5072879;28;20051;-89
2022/02/22 13:32:15;;;;;;;1.20;0.52;;;;;;;13.67;100.00;99605.75;5073224;28;20410;-90
2022/02/22 13:35:21;;;;;;;4.25;0.32;;;;;;;13.81;100.00;99627.19;5071475;28;20159;-89
2022/02/22 13:38:30;;;;;;;0.47;0.47;;;;;;;13.93;100.00;99631.56;5073036;28;20052;-90
2022/02/22 13:41:39;;;;;;;0.10;0.10;;;;;;;14.26;100.00;99647.69;5071221;28;20062;-90
2022/02/22 13:44:43;;;;;;;1.55;0.30;;;;;;;14.37;100.00;99639.34;5071135;28;20056;-89
2022/02/22 13:47:46;;;;;;;2.45;0.65;;;;;;;14.52;100.00;99644.72;5072318;28;20051;-90
2022/02/22 13:50:49;;;;;;;1.60;0.50;;;;;;;14.33;100.00;99658.44;5069755;28;20509;-88
2022/02/22 13:53:54;;;;;;;3.15;0.80;;;;;;;14.01;100.00;99674.59;5069902;28;20056;-85
2022/02/22 13:57:00;;;;;;;3.47;1.02;;;;;;;13.71;100.00;99672.69;5071054;28;20405;-91
2022/02/22 14:00:08;;;;;;;0.50;0.50;;;;;;;13.64;100.00;99677.47;5088254;28;20058;-86
2022/02/22 14:03:12;;;;;;;3.92;0.47;;;;;;;13.71;100.00;99669.91;5092937;28;20059;-89
2022/02/22 14:06:15;;;;;;;7.97;0.45;;;;;;;13.79;100.00;99685.72;5092067;28;20047;-89
2022/02/22 14:09:18;;;;;;;3.70;0.70;;;;;;;13.52;100.00;99689.88;5052857;28;20056;-90
2022/02/22 14:12:22;;;;;;;0.65;0.25;;;;;;;12.95;100.00;99680.78;5050762;28;20051;-90
2022/02/22 14:15:26;;;;;;;2.17;0.57;;;;;;;12.55;100.00;99701.28;5051017;28;20090;-90
2022/02/22 14:18:29;;;;;;;1.35;0.52;;;;;;;12.48;100.00;99703.72;5069752;28;20051;-92
2022/02/22 14:21:33;;;;;;;0.55;0.55;;;;;;;12.56;100.00;99700.00;5069963;28;20522;-89